Current Weather Conditions: station 63103

sailwx.info

Wind from 230 at 20 knots

Wave height 3.5 meters (11 feet), 9 second period

Air temperature 13.3° C

Last reported at 2014-Sep-02 03:00 UTC.
Time now 2014-Sep-02 04:18 UTC

Location: N 61°12' E 001°06'.
View on Google Maps.

See reports from other nearby stations

  
Tides and Currents Weather Stations Pressure Air Temp Water Temp Dewpoint Dewpoint Depression Visibility Wind Speed Wind Dir Waves Ship Positions
date/time (UTC)wind fromknots sea level pressurealtimeterstation pressurevisibilityair tempwater tempwave heightnotes
2014-Sep-02 03:00 230 20 13.3 3.5
2014-Sep-02 02:00 230 20 13.3 3.9
2014-Sep-02 01:00 230 19 13.3 3.9
2014-Sep-02 00:00 230 19 13.2 4.2
2014-Sep-01 23:00 230 20 13.2 4.2
2014-Sep-01 22:00 230 22 13.4 4.6
2014-Sep-01 21:00 230 20 13.3 4.4
2014-Sep-01 20:00 220 20 13.4 4.0
2014-Sep-01 19:00 230 20 13.3 3.8
2014-Sep-01 18:00 230 19 13.4 2.9
2014-Sep-01 17:00 220 18 13.4 2.5
2014-Sep-01 16:00 220 19 13.5 2.4
2014-Sep-01 15:00 230 19 13.4 2.3
2014-Sep-01 14:00 230 20 13.4 2.2
2014-Sep-01 13:00 230 18 13.5 2.2
2014-Sep-01 12:00 220 18 13.4 2.2
2014-Sep-01 11:00 210 16 13.0 2.2
2014-Sep-01 10:00 220 15 12.8 2.3
2014-Sep-01 09:00 210 14 13.1 2.4
2014-Sep-01 08:00 220 12 12.2 2.7
2014-Sep-01 07:00 190 26 13.4 2.6
2014-Sep-01 06:00 190 29 13.5 2.7
2014-Sep-01 05:00 190 31 13.7 2.7
2014-Sep-01 04:00 190 31 13.7 2.9
2014-Sep-01 03:00 190 33 13.8 2.5
2014-Sep-01 02:00 180 32 13.9 2.3
2014-Sep-01 01:00 180 34 14.0 2.4
2014-Sep-01 00:00 180 31 13.9 2.0
2014-Aug-31 23:00 180 29 13.8 2.1
2014-Aug-31 22:00 170 27 13.8 1.9
2014-Aug-31 21:00 170 26 13.7 1.6
2014-Aug-31 20:00 170 24 13.7 1.7
2014-Aug-31 19:00 180 19 13.8 1.7
2014-Aug-31 18:00 190 20 13.9 1.7
2014-Aug-31 17:00 170 20 14.1 1.6
2014-Aug-31 16:00 170 18 14.2 1.5
2014-Aug-31 15:00 170 18 14.4 1.4
2014-Aug-31 14:00 170 18 14.6 1.3
2014-Aug-31 13:00 170 16 14.6 1.1
2014-Aug-31 12:00 170 16 14.5 1.1
2014-Aug-31 11:00 160 14 14.2 1.0
2014-Aug-31 10:00 170 12 14.5 1.1
2014-Aug-31 09:00 170 11 14.6 1.0
2014-Aug-31 08:00 140 11 14.8 1.0
2014-Aug-31 07:00 120 11 16.0 1.2
2014-Aug-31 06:00 100 13 15.7 1.1
2014-Aug-31 05:00 070 7 14.9 1.2
2014-Aug-31 04:00 100 4 15.4 1.2